sensor_id;sensor_type;location;lat;lon;timestamp;temperature;humidity
27745;DHT22;61387;48.112;8.616;2023-02-24T00:03:34;3.10;99.90
27745;DHT22;61387;48.112;8.616;2023-02-24T00:11:08;3.10;99.90
27745;DHT22;61387;48.112;8.616;2023-02-24T00:13:34;3.00;99.90
27745;DHT22;61387;48.112;8.616;2023-02-24T00:16:01;2.90;99.90
27745;DHT22;61387;48.112;8.616;2023-02-24T00:18:27;2.90;99.90
27745;DHT22;61387;48.112;8.616;2023-02-24T00:20:53;2.90;99.90
27745;DHT22;61387;48.112;8.616;2023-02-24T00:25:48;2.60;99.90
27745;DHT22;61387;48.112;8.616;2023-02-24T00:40:28;2.00;99.90
27745;DHT22;61387;48.112;8.616;2023-02-24T00:45:20;2.10;99.90
27745;DHT22;61387;48.112;8.616;2023-02-24T00:55:04;2.10;99.90
27745;DHT22;61387;48.112;8.616;2023-02-24T01:00:06;2.00;99.90
27745;DHT22;61387;48.112;8.616;2023-02-24T01:05:04;2.10;99.90
27745;DHT22;61387;48.112;8.616;2023-02-24T01:12:22;2.00;99.90
27745;DHT22;61387;48.112;8.616;2023-02-24T01:15:10;2.00;99.90
27745;DHT22;61387;48.112;8.616;2023-02-24T01:20:04;2.00;99.90
27745;DHT22;61387;48.112;8.616;2023-02-24T01:22:41;2.00;99.90
27745;DHT22;61387;48.112;8.616;2023-02-24T01:27:34;2.00;99.90
27745;DHT22;61387;48.112;8.616;2023-02-24T01:34:56;1.90;99.90
27745;DHT22;61387;48.112;8.616;2023-02-24T01:37:22;1.90;99.90
27745;DHT22;61387;48.112;8.616;2023-02-24T01:42:17;1.80;99.90
27745;DHT22;61387;48.112;8.616;2023-02-24T01:47:13;1.90;99.90
27745;DHT22;61387;48.112;8.616;2023-02-24T01:49:44;1.90;99.90
27745;DHT22;61387;48.112;8.616;2023-02-24T02:02:03;1.80;99.90
27745;DHT22;61387;48.112;8.616;2023-02-24T02:07:15;1.80;99.90
27745;DHT22;61387;48.112;8.616;2023-02-24T02:09:42;1.80;99.90
27745;DHT22;61387;48.112;8.616;2023-02-24T02:12:09;1.90;99.90
27745;DHT22;61387;48.112;8.616;2023-02-24T02:34:41;1.90;99.90
27745;DHT22;61387;48.112;8.616;2023-02-24T02:37:33;1.80;99.90
27745;DHT22;61387;48.112;8.616;2023-02-24T02:40:36;1.80;99.90
27745;DHT22;61387;48.112;8.616;2023-02-24T02:50:31;1.70;99.90
27745;DHT22;61387;48.112;8.616;2023-02-24T02:53:03;1.70;99.90
27745;DHT22;61387;48.112;8.616;2023-02-24T02:55:39;1.60;99.90
27745;DHT22;61387;48.112;8.616;2023-02-24T02:58:10;1.60;99.90
27745;DHT22;61387;48.112;8.616;2023-02-24T03:00:43;1.60;99.90
27745;DHT22;61387;48.112;8.616;2023-02-24T03:03:16;1.50;99.90
27745;DHT22;61387;48.112;8.616;2023-02-24T03:05:50;1.50;99.90
27745;DHT22;61387;48.112;8.616;2023-02-24T03:08:20;1.50;99.90
27745;DHT22;61387;48.112;8.616;2023-02-24T03:10:48;1.50;99.90
27745;DHT22;61387;48.112;8.616;2023-02-24T03:13:17;1.60;99.90
27745;DHT22;61387;48.112;8.616;2023-02-24T03:15:45;1.50;99.90
27745;DHT22;61387;48.112;8.616;2023-02-24T03:18:18;1.50;99.90
27745;DHT22;61387;48.112;8.616;2023-02-24T03:20:52;1.50;99.90
27745;DHT22;61387;48.112;8.616;2023-02-24T03:23:24;1.40;99.90
27745;DHT22;61387;48.112;8.616;2023-02-24T03:31:41;1.30;99.90
27745;DHT22;61387;48.112;8.616;2023-02-24T03:34:26;1.20;99.90
27745;DHT22;61387;48.112;8.616;2023-02-24T03:36:54;1.20;99.90
27745;DHT22;61387;48.112;8.616;2023-02-24T03:39:21;1.10;99.90
27745;DHT22;61387;48.112;8.616;2023-02-24T03:42:06;1.10;99.90
27745;DHT22;61387;48.112;8.616;2023-02-24T03:44:33;1.10;99.90
27745;DHT22;61387;48.112;8.616;2023-02-24T03:47:00;1.00;99.90
27745;DHT22;61387;48.112;8.616;2023-02-24T03:49:26;1.00;99.90
27745;DHT22;61387;48.112;8.616;2023-02-24T03:52:37;1.00;99.90
27745;DHT22;61387;48.112;8.616;2023-02-24T03:55:39;1.10;99.90
27745;DHT22;61387;48.112;8.616;2023-02-24T04:06:55;1.00;99.90
27745;DHT22;61387;48.112;8.616;2023-02-24T04:09:38;0.90;99.90
27745;DHT22;61387;48.112;8.616;2023-02-24T04:12:25;0.90;99.90
27745;DHT22;61387;48.112;8.616;2023-02-24T04:15:04;0.90;99.90
27745;DHT22;61387;48.112;8.616;2023-02-24T04:20:05;1.00;99.90
27745;DHT22;61387;48.112;8.616;2023-02-24T04:22:38;1.00;99.90
27745;DHT22;61387;48.112;8.616;2023-02-24T04:25:06;1.00;99.90
27745;DHT22;61387;48.112;8.616;2023-02-24T04:27:40;1.10;99.90
27745;DHT22;61387;48.112;8.616;2023-02-24T04:30:07;1.20;99.90
27745;DHT22;61387;48.112;8.616;2023-02-24T04:32:36;1.20;99.90
27745;DHT22;61387;48.112;8.616;2023-02-24T04:35:04;1.30;99.90
27745;DHT22;61387;48.112;8.616;2023-02-24T04:49:44;1.70;99.90
27745;DHT22;61387;48.112;8.616;2023-02-24T04:52:09;1.70;99.90
27745;DHT22;61387;48.112;8.616;2023-02-24T04:54:37;1.70;99.90
27745;DHT22;61387;48.112;8.616;2023-02-24T05:04:26;1.70;99.90
27745;DHT22;61387;48.112;8.616;2023-02-24T05:11:49;1.70;99.90
27745;DHT22;61387;48.112;8.616;2023-02-24T05:14:17;1.70;99.90
27745;DHT22;61387;48.112;8.616;2023-02-24T05:16:46;1.70;99.90
27745;DHT22;61387;48.112;8.616;2023-02-24T05:19:15;1.70;99.90
27745;DHT22;61387;48.112;8.616;2023-02-24T05:22:00;1.70;99.90
27745;DHT22;61387;48.112;8.616;2023-02-24T05:24:28;1.60;99.90
27745;DHT22;61387;48.112;8.616;2023-02-24T05:26:55;1.70;99.90
27745;DHT22;61387;48.112;8.616;2023-02-24T05:29:25;1.80;99.90
27745;DHT22;61387;48.112;8.616;2023-02-24T05:34:25;1.70;99.90
27745;DHT22;61387;48.112;8.616;2023-02-24T05:36:51;1.50;99.90
27745;DHT22;61387;48.112;8.616;2023-02-24T05:39:18;1.50;99.90
27745;DHT22;61387;48.112;8.616;2023-02-24T05:41:46;1.50;99.90
27745;DHT22;61387;48.112;8.616;2023-02-24T05:44:15;1.50;99.90
27745;DHT22;61387;48.112;8.616;2023-02-24T05:46:43;1.60;99.90
27745;DHT22;61387;48.112;8.616;2023-02-24T05:49:20;1.60;99.90
27745;DHT22;61387;48.112;8.616;2023-02-24T05:51:51;1.60;99.90
27745;DHT22;61387;48.112;8.616;2023-02-24T05:54:27;1.70;99.90
27745;DHT22;61387;48.112;8.616;2023-02-24T05:57:07;1.70;99.90
27745;DHT22;61387;48.112;8.616;2023-02-24T05:59:33;1.80;99.90
27745;DHT22;61387;48.112;8.616;2023-02-24T06:02:02;1.90;99.90
27745;DHT22;61387;48.112;8.616;2023-02-24T06:04:32;1.90;99.90
27745;DHT22;61387;48.112;8.616;2023-02-24T06:07:06;1.90;99.90
27745;DHT22;61387;48.112;8.616;2023-02-24T06:09:31;1.90;99.90
27745;DHT22;61387;48.112;8.616;2023-02-24T06:11:57;2.00;99.90
27745;DHT22;61387;48.112;8.616;2023-02-24T06:14:23;2.00;99.90
27745;DHT22;61387;48.112;8.616;2023-02-24T06:24:11;2.10;99.90
27745;DHT22;61387;48.112;8.616;2023-02-24T06:29:10;2.10;99.90
27745;DHT22;61387;48.112;8.616;2023-02-24T06:34:03;2.20;99.90
27745;DHT22;61387;48.112;8.616;2023-02-24T06:46:14;2.30;99.90
27745;DHT22;61387;48.112;8.616;2023-02-24T06:48:41;2.30;99.90
27745;DHT22;61387;48.112;8.616;2023-02-24T06:51:09;2.40;99.90
27745;DHT22;61387;48.112;8.616;2023-02-24T06:53:36;2.40;99.90
27745;DHT22;61387;48.112;8.616;2023-02-24T06:56:08;2.50;99.90
27745;DHT22;61387;48.112;8.616;2023-02-24T06:58:43;2.50;99.90
27745;DHT22;61387;48.112;8.616;2023-02-24T07:01:11;2.60;99.90
27745;DHT22;61387;48.112;8.616;2023-02-24T07:06:08;2.50;99.90
27745;DHT22;61387;48.112;8.616;2023-02-24T07:08:45;2.60;99.90
27745;DHT22;61387;48.112;8.616;2023-02-24T07:11:11;2.60;99.90
27745;DHT22;61387;48.112;8.616;2023-02-24T07:16:05;2.70;99.90
27745;DHT22;61387;48.112;8.616;2023-02-24T07:18:35;2.60;99.90
27745;DHT22;61387;48.112;8.616;2023-02-24T07:21:04;2.60;99.90
27745;DHT22;61387;48.112;8.616;2023-02-24T07:23:36;2.60;99.90
27745;DHT22;61387;48.112;8.616;2023-02-24T07:26:05;2.70;99.90
27745;DHT22;61387;48.112;8.616;2023-02-24T07:31:03;2.80;99.90
27745;DHT22;61387;48.112;8.616;2023-02-24T07:48:11;3.20;99.90
27745;DHT22;61387;48.112;8.616;2023-02-24T07:50:39;3.30;99.90
27745;DHT22;61387;48.112;8.616;2023-02-24T08:15:28;3.90;99.90
27745;DHT22;61387;48.112;8.616;2023-02-24T08:17:59;4.10;99.90
27745;DHT22;61387;48.112;8.616;2023-02-24T08:20:27;4.30;99.90
27745;DHT22;61387;48.112;8.616;2023-02-24T08:22:59;4.50;99.90
27745;DHT22;61387;48.112;8.616;2023-02-24T08:25:27;4.60;99.90
27745;DHT22;61387;48.112;8.616;2023-02-24T08:35:30;4.60;99.90
27745;DHT22;61387;48.112;8.616;2023-02-24T08:40:35;4.70;99.90
27745;DHT22;61387;48.112;8.616;2023-02-24T08:43:11;4.90;99.90
27745;DHT22;61387;48.112;8.616;2023-02-24T08:48:40;5.30;99.90
27745;DHT22;61387;48.112;8.616;2023-02-24T08:56:00;5.60;99.90
27745;DHT22;61387;48.112;8.616;2023-02-24T09:03:28;5.50;99.90
27745;DHT22;61387;48.112;8.616;2023-02-24T09:06:04;5.50;99.90
27745;DHT22;61387;48.112;8.616;2023-02-24T09:08:38;5.60;99.90
27745;DHT22;61387;48.112;8.616;2023-02-24T09:11:10;5.80;99.90
27745;DHT22;61387;48.112;8.616;2023-02-24T09:13:40;6.00;99.90
27745;DHT22;61387;48.112;8.616;2023-02-24T09:16:17;6.10;99.90
27745;DHT22;61387;48.112;8.616;2023-02-24T09:18:43;6.10;99.90
27745;DHT22;61387;48.112;8.616;2023-02-24T09:21:13;6.10;99.90
27745;DHT22;61387;48.112;8.616;2023-02-24T09:24:02;6.30;99.90
27745;DHT22;61387;48.112;8.616;2023-02-24T09:26:32;6.40;99.90
27745;DHT22;61387;48.112;8.616;2023-02-24T09:29:09;9.20;99.90
27745;DHT22;61387;48.112;8.616;2023-02-24T09:39:28;6.80;99.90
27745;DHT22;61387;48.112;8.616;2023-02-24T09:44:39;7.10;99.90
27745;DHT22;61387;48.112;8.616;2023-02-24T09:49:48;7.10;99.90
27745;DHT22;61387;48.112;8.616;2023-02-24T09:52:16;7.20;99.90
27745;DHT22;61387;48.112;8.616;2023-02-24T09:54:44;7.20;99.90
27745;DHT22;61387;48.112;8.616;2023-02-24T09:57:32;7.00;99.90
27745;DHT22;61387;48.112;8.616;2023-02-24T10:00:12;7.10;99.90
27745;DHT22;61387;48.112;8.616;2023-02-24T10:03:31;7.00;99.90
27745;DHT22;61387;48.112;8.616;2023-02-24T10:06:25;7.10;99.90
27745;DHT22;61387;48.112;8.616;2023-02-24T10:09:03;7.40;99.90
27745;DHT22;61387;48.112;8.616;2023-02-24T10:11:43;7.50;99.90
27745;DHT22;61387;48.112;8.616;2023-02-24T10:17:17;7.90;99.90
27745;DHT22;61387;48.112;8.616;2023-02-24T10:19:58;8.20;99.90
27745;DHT22;61387;48.112;8.616;2023-02-24T10:22:49;8.40;99.90
27745;DHT22;61387;48.112;8.616;2023-02-24T10:27:56;8.90;99.90
27745;DHT22;61387;48.112;8.616;2023-02-24T10:33:20;9.20;99.90
27745;DHT22;61387;48.112;8.616;2023-02-24T10:35:50;9.30;99.90
27745;DHT22;61387;48.112;8.616;2023-02-24T10:38:15;9.30;99.90
27745;DHT22;61387;48.112;8.616;2023-02-24T10:40:52;9.50;99.90
27745;DHT22;61387;48.112;8.616;2023-02-24T10:43:24;9.60;99.90
27745;DHT22;61387;48.112;8.616;2023-02-24T10:46:00;9.80;99.90
27745;DHT22;61387;48.112;8.616;2023-02-24T10:48:54;9.80;99.90
27745;DHT22;61387;48.112;8.616;2023-02-24T10:51:37;10.00;99.90
27745;DHT22;61387;48.112;8.616;2023-02-24T10:54:38;10.10;99.90
27745;DHT22;61387;48.112;8.616;2023-02-24T10:57:30;10.00;99.90
27745;DHT22;61387;48.112;8.616;2023-02-24T11:00:08;9.80;99.90
27745;DHT22;61387;48.112;8.616;2023-02-24T11:02:55;9.60;99.90
27745;DHT22;61387;48.112;8.616;2023-02-24T11:05:41;9.60;99.90
27745;DHT22;61387;48.112;8.616;2023-02-24T11:11:06;9.60;99.90
27745;DHT22;61387;48.112;8.616;2023-02-24T11:13:33;9.60;99.90
27745;DHT22;61387;48.112;8.616;2023-02-24T11:16:19;9.60;99.90
27745;DHT22;61387;48.112;8.616;2023-02-24T11:19:05;9.60;99.90
27745;DHT22;61387;48.112;8.616;2023-02-24T11:21:32;9.70;99.90
27745;DHT22;61387;48.112;8.616;2023-02-24T11:23:59;9.70;99.90
27745;DHT22;61387;48.112;8.616;2023-02-24T11:26:36;9.80;99.90
27745;DHT22;61387;48.112;8.616;2023-02-24T11:29:26;10.00;99.90
27745;DHT22;61387;48.112;8.616;2023-02-24T11:37:30;10.10;99.90
27745;DHT22;61387;48.112;8.616;2023-02-24T11:40:26;10.00;99.90
27745;DHT22;61387;48.112;8.616;2023-02-24T11:43:10;9.80;99.90
27745;DHT22;61387;48.112;8.616;2023-02-24T11:45:55;9.80;99.90
27745;DHT22;61387;48.112;8.616;2023-02-24T11:50:58;9.70;99.90
27745;DHT22;61387;48.112;8.616;2023-02-24T11:53:47;9.60;99.90
27745;DHT22;61387;48.112;8.616;2023-02-24T11:56:35;9.70;99.90
27745;DHT22;61387;48.112;8.616;2023-02-24T11:59:11;9.70;99.90
27745;DHT22;61387;48.112;8.616;2023-02-24T12:01:57;9.70;99.90
27745;DHT22;61387;48.112;8.616;2023-02-24T12:04:31;9.80;99.90
27745;DHT22;61387;48.112;8.616;2023-02-24T12:09:48;9.90;99.90
27745;DHT22;61387;48.112;8.616;2023-02-24T12:12:27;10.00;99.90
27745;DHT22;61387;48.112;8.616;2023-02-24T12:15:01;10.00;99.90
27745;DHT22;61387;48.112;8.616;2023-02-24T12:17:41;9.70;99.90
27745;DHT22;61387;48.112;8.616;2023-02-24T12:20:21;9.80;99.90
27745;DHT22;61387;48.112;8.616;2023-02-24T12:22:52;10.10;99.90
27745;DHT22;61387;48.112;8.616;2023-02-24T12:25:26;10.30;99.90
27745;DHT22;61387;48.112;8.616;2023-02-24T12:30:39;10.80;99.90
27745;DHT22;61387;48.112;8.616;2023-02-24T12:33:47;10.80;99.90
27745;DHT22;61387;48.112;8.616;2023-02-24T12:36:33;10.90;99.90
27745;DHT22;61387;48.112;8.616;2023-02-24T12:39:19;10.80;99.90
27745;DHT22;61387;48.112;8.616;2023-02-24T12:44:34;10.60;99.90
27745;DHT22;61387;48.112;8.616;2023-02-24T12:47:16;10.70;99.90
27745;DHT22;61387;48.112;8.616;2023-02-24T12:50:06;10.70;99.90
27745;DHT22;61387;48.112;8.616;2023-02-24T12:53:01;10.70;99.90
27745;DHT22;61387;48.112;8.616;2023-02-24T12:58:32;11.00;99.90
27745;DHT22;61387;48.112;8.616;2023-02-24T13:03:44;11.10;99.90
27745;DHT22;61387;48.112;8.616;2023-02-24T13:06:44;11.00;99.90
27745;DHT22;61387;48.112;8.616;2023-02-24T13:14:53;11.00;99.90
27745;DHT22;61387;48.112;8.616;2023-02-24T13:17:22;11.10;99.90
27745;DHT22;61387;48.112;8.616;2023-02-24T13:19:49;11.10;99.90
27745;DHT22;61387;48.112;8.616;2023-02-24T13:22:28;11.20;99.90
27745;DHT22;61387;48.112;8.616;2023-02-24T13:27:21;11.20;99.90
27745;DHT22;61387;48.112;8.616;2023-02-24T13:29:49;11.20;99.90
27745;DHT22;61387;48.112;8.616;2023-02-24T13:32:44;11.30;99.90
27745;DHT22;61387;48.112;8.616;2023-02-24T13:37:46;11.00;99.90
27745;DHT22;61387;48.112;8.616;2023-02-24T13:40:21;10.80;99.90
27745;DHT22;61387;48.112;8.616;2023-02-24T13:45:35;11.10;99.90
27745;DHT22;61387;48.112;8.616;2023-02-24T13:56:47;11.30;99.90
27745;DHT22;61387;48.112;8.616;2023-02-24T14:02:15;10.70;99.90
27745;DHT22;61387;48.112;8.616;2023-02-24T14:04:48;10.70;99.90
27745;DHT22;61387;48.112;8.616;2023-02-24T14:07:30;10.80;99.90
27745;DHT22;61387;48.112;8.616;2023-02-24T14:15:29;10.80;99.90
27745;DHT22;61387;48.112;8.616;2023-02-24T14:18:00;10.90;99.90
27745;DHT22;61387;48.112;8.616;2023-02-24T14:20:30;11.00;99.90
27745;DHT22;61387;48.112;8.616;2023-02-24T14:22:57;11.20;99.90
27745;DHT22;61387;48.112;8.616;2023-02-24T14:25:25;11.20;99.90
27745;DHT22;61387;48.112;8.616;2023-02-24T14:27:53;11.10;99.90
27745;DHT22;61387;48.112;8.616;2023-02-24T14:30:32;11.20;99.90
27745;DHT22;61387;48.112;8.616;2023-02-24T14:32:58;11.20;99.90
27745;DHT22;61387;48.112;8.616;2023-02-24T14:35:45;11.20;99.90
27745;DHT22;61387;48.112;8.616;2023-02-24T14:38:32;11.20;99.90
27745;DHT22;61387;48.112;8.616;2023-02-24T14:40:59;11.30;99.90
27745;DHT22;61387;48.112;8.616;2023-02-24T14:43:25;11.20;99.90
27745;DHT22;61387;48.112;8.616;2023-02-24T14:45:52;11.10;99.90
27745;DHT22;61387;48.112;8.616;2023-02-24T14:48:26;11.10;99.90
27745;DHT22;61387;48.112;8.616;2023-02-24T14:51:21;10.90;99.90
27745;DHT22;61387;48.112;8.616;2023-02-24T14:53:51;10.90;99.90
27745;DHT22;61387;48.112;8.616;2023-02-24T14:56:19;10.90;99.90
27745;DHT22;61387;48.112;8.616;2023-02-24T14:58:49;10.90;99.90
27745;DHT22;61387;48.112;8.616;2023-02-24T15:01:20;11.10;99.90
27745;DHT22;61387;48.112;8.616;2023-02-24T15:04:11;11.00;99.90
27745;DHT22;61387;48.112;8.616;2023-02-24T15:06:40;10.90;99.90
27745;DHT22;61387;48.112;8.616;2023-02-24T15:09:13;10.80;99.90
27745;DHT22;61387;48.112;8.616;2023-02-24T15:14:25;11.00;99.90
27745;DHT22;61387;48.112;8.616;2023-02-24T15:16:59;11.00;99.90
27745;DHT22;61387;48.112;8.616;2023-02-24T15:21:58;10.90;99.90
27745;DHT22;61387;48.112;8.616;2023-02-24T15:24:26;10.80;99.90
27745;DHT22;61387;48.112;8.616;2023-02-24T15:26:57;10.90;99.90
27745;DHT22;61387;48.112;8.616;2023-02-24T15:29:25;10.70;99.90
27745;DHT22;61387;48.112;8.616;2023-02-24T15:31:56;10.70;99.90
27745;DHT22;61387;48.112;8.616;2023-02-24T15:34:34;10.70;99.90
27745;DHT22;61387;48.112;8.616;2023-02-24T15:37:15;10.80;99.90
27745;DHT22;61387;48.112;8.616;2023-02-24T15:39:42;10.80;99.90
27745;DHT22;61387;48.112;8.616;2023-02-24T15:44:59;10.80;99.90
27745;DHT22;61387;48.112;8.616;2023-02-24T15:47:43;10.60;99.90
27745;DHT22;61387;48.112;8.616;2023-02-24T15:50:10;10.50;99.90
27745;DHT22;61387;48.112;8.616;2023-02-24T15:52:36;10.50;99.90
27745;DHT22;61387;48.112;8.616;2023-02-24T15:55:02;10.40;99.90
27745;DHT22;61387;48.112;8.616;2023-02-24T15:57:30;10.40;99.90
27745;DHT22;61387;48.112;8.616;2023-02-24T15:59:56;10.40;99.90
27745;DHT22;61387;48.112;8.616;2023-02-24T16:02:22;10.40;99.90
27745;DHT22;61387;48.112;8.616;2023-02-24T16:04:49;10.40;99.90
27745;DHT22;61387;48.112;8.616;2023-02-24T16:07:20;10.40;99.90
27745;DHT22;61387;48.112;8.616;2023-02-24T16:09:46;10.30;99.90
27745;DHT22;61387;48.112;8.616;2023-02-24T16:12:20;10.20;99.90
27745;DHT22;61387;48.112;8.616;2023-02-24T16:14:47;10.10;99.90
27745;DHT22;61387;48.112;8.616;2023-02-24T16:17:30;10.00;99.90
27745;DHT22;61387;48.112;8.616;2023-02-24T16:19:57;10.00;99.90
27745;DHT22;61387;48.112;8.616;2023-02-24T16:22:23;10.00;99.90
27745;DHT22;61387;48.112;8.616;2023-02-24T16:24:49;9.90;99.90
27745;DHT22;61387;48.112;8.616;2023-02-24T16:27:21;9.90;99.90
27745;DHT22;61387;48.112;8.616;2023-02-24T16:29:47;9.80;99.90
27745;DHT22;61387;48.112;8.616;2023-02-24T16:37:25;9.70;99.90
27745;DHT22;61387;48.112;8.616;2023-02-24T16:39:51;9.60;99.90
27745;DHT22;61387;48.112;8.616;2023-02-24T16:47:14;9.30;99.90
27745;DHT22;61387;48.112;8.616;2023-02-24T16:54:34;9.20;99.90
27745;DHT22;61387;48.112;8.616;2023-02-24T16:56:59;9.10;99.90
27745;DHT22;61387;48.112;8.616;2023-02-24T16:59:24;9.10;99.90
27745;DHT22;61387;48.112;8.616;2023-02-24T17:01:58;9.00;99.90
27745;DHT22;61387;48.112;8.616;2023-02-24T17:04:24;8.90;99.90
27745;DHT22;61387;48.112;8.616;2023-02-24T17:06:49;8.90;99.90
27745;DHT22;61387;48.112;8.616;2023-02-24T17:09:16;8.80;99.90
27745;DHT22;61387;48.112;8.616;2023-02-24T17:11:42;8.80;99.90
27745;DHT22;61387;48.112;8.616;2023-02-24T17:14:15;8.80;99.90
27745;DHT22;61387;48.112;8.616;2023-02-24T17:26:25;8.70;99.90
27745;DHT22;61387;48.112;8.616;2023-02-24T17:33:43;8.70;99.90
27745;DHT22;61387;48.112;8.616;2023-02-24T17:36:08;8.70;99.90
27745;DHT22;61387;48.112;8.616;2023-02-24T17:38:34;8.60;99.90
27745;DHT22;61387;48.112;8.616;2023-02-24T17:45:53;8.40;99.90
27745;DHT22;61387;48.112;8.616;2023-02-24T17:48:20;8.30;99.90
27745;DHT22;61387;48.112;8.616;2023-02-24T17:50:46;8.20;99.90
27745;DHT22;61387;48.112;8.616;2023-02-24T17:58:06;8.10;99.90
27745;DHT22;61387;48.112;8.616;2023-02-24T18:02:58;8.10;99.90
27745;DHT22;61387;48.112;8.616;2023-02-24T18:07:49;8.40;99.90
27745;DHT22;61387;48.112;8.616;2023-02-24T18:10:15;8.50;99.90
27745;DHT22;61387;48.112;8.616;2023-02-24T18:12:40;8.50;99.90
27745;DHT22;61387;48.112;8.616;2023-02-24T18:15:07;8.50;99.90
27745;DHT22;61387;48.112;8.616;2023-02-24T18:17:34;8.50;99.90
27745;DHT22;61387;48.112;8.616;2023-02-24T18:22:26;8.40;99.90
27745;DHT22;61387;48.112;8.616;2023-02-24T18:24:51;8.40;99.90
27745;DHT22;61387;48.112;8.616;2023-02-24T18:27:17;8.40;99.90
27745;DHT22;61387;48.112;8.616;2023-02-24T18:32:09;7.10;99.90
27745;DHT22;61387;48.112;8.616;2023-02-24T18:34:34;8.20;99.90
27745;DHT22;61387;48.112;8.616;2023-02-24T18:46:45;8.00;99.90
27745;DHT22;61387;48.112;8.616;2023-02-24T18:51:37;7.90;99.90
27745;DHT22;61387;48.112;8.616;2023-02-24T18:54:03;7.80;99.90
27745;DHT22;61387;48.112;8.616;2023-02-24T18:56:30;7.80;99.90
27745;DHT22;61387;48.112;8.616;2023-02-24T18:58:58;7.70;99.90
27745;DHT22;61387;48.112;8.616;2023-02-24T19:01:33;7.70;99.90
27745;DHT22;61387;48.112;8.616;2023-02-24T19:04:00;7.60;99.90
27745;DHT22;61387;48.112;8.616;2023-02-24T19:06:27;7.60;99.90
27745;DHT22;61387;48.112;8.616;2023-02-24T19:11:28;7.50;99.90
27745;DHT22;61387;48.112;8.616;2023-02-24T19:16:21;7.50;99.90
27745;DHT22;61387;48.112;8.616;2023-02-24T19:18:51;7.50;99.90
27745;DHT22;61387;48.112;8.616;2023-02-24T19:26:24;7.30;99.90
27745;DHT22;61387;48.112;8.616;2023-02-24T19:28:50;7.30;99.90
27745;DHT22;61387;48.112;8.616;2023-02-24T19:31:19;7.30;99.90
27745;DHT22;61387;48.112;8.616;2023-02-24T19:38:39;7.20;99.90
27745;DHT22;61387;48.112;8.616;2023-02-24T19:41:05;7.20;99.90
27745;DHT22;61387;48.112;8.616;2023-02-24T19:50:48;7.10;99.90
27745;DHT22;61387;48.112;8.616;2023-02-24T20:00:32;7.10;99.90
27745;DHT22;61387;48.112;8.616;2023-02-24T20:15:09;6.90;99.90
27745;DHT22;61387;48.112;8.616;2023-02-24T20:20:00;6.90;99.90
27745;DHT22;61387;48.112;8.616;2023-02-24T20:29:44;6.90;99.90
27745;DHT22;61387;48.112;8.616;2023-02-24T20:32:10;6.90;99.90
27745;DHT22;61387;48.112;8.616;2023-02-24T20:54:10;6.50;99.90
27745;DHT22;61387;48.112;8.616;2023-02-24T20:56:37;6.50;99.90
27745;DHT22;61387;48.112;8.616;2023-02-24T20:59:06;6.40;99.90
27745;DHT22;61387;48.112;8.616;2023-02-24T21:01:33;6.10;99.90
27745;DHT22;61387;48.112;8.616;2023-02-24T21:03:59;5.80;99.90
27745;DHT22;61387;48.112;8.616;2023-02-24T21:06:26;5.60;99.90
27745;DHT22;61387;48.112;8.616;2023-02-24T21:11:19;5.30;99.90
27745;DHT22;61387;48.112;8.616;2023-02-24T21:13:46;5.10;99.90
27745;DHT22;61387;48.112;8.616;2023-02-24T21:16:13;5.00;99.90
27745;DHT22;61387;48.112;8.616;2023-02-24T21:18:41;4.80;99.90
27745;DHT22;61387;48.112;8.616;2023-02-24T21:21:08;4.70;99.90
27745;DHT22;61387;48.112;8.616;2023-02-24T21:23:34;4.50;99.90
27745;DHT22;61387;48.112;8.616;2023-02-24T21:40:36;4.20;99.90
27745;DHT22;61387;48.112;8.616;2023-02-24T21:43:03;4.20;99.90
27745;DHT22;61387;48.112;8.616;2023-02-24T21:57:42;4.00;99.90
27745;DHT22;61387;48.112;8.616;2023-02-24T22:00:13;4.00;99.90
27745;DHT22;61387;48.112;8.616;2023-02-24T22:02:47;4.00;99.90
27745;DHT22;61387;48.112;8.616;2023-02-24T22:05:13;4.00;99.90
27745;DHT22;61387;48.112;8.616;2023-02-24T22:10:06;4.00;99.90
27745;DHT22;61387;48.112;8.616;2023-02-24T22:12:32;4.00;99.90
27745;DHT22;61387;48.112;8.616;2023-02-24T22:17:23;4.00;99.90
27745;DHT22;61387;48.112;8.616;2023-02-24T22:19:49;4.10;99.90
27745;DHT22;61387;48.112;8.616;2023-02-24T22:32:06;4.10;99.90
27745;DHT22;61387;48.112;8.616;2023-02-24T22:36:57;4.00;99.90
27745;DHT22;61387;48.112;8.616;2023-02-24T22:39:23;4.00;99.90
27745;DHT22;61387;48.112;8.616;2023-02-24T22:41:50;4.00;99.90
27745;DHT22;61387;48.112;8.616;2023-02-24T22:49:11;3.90;99.90
27745;DHT22;61387;48.112;8.616;2023-02-24T22:56:29;3.90;99.90
27745;DHT22;61387;48.112;8.616;2023-02-24T23:01:30;3.90;99.90
27745;DHT22;61387;48.112;8.616;2023-02-24T23:04:03;3.90;99.90
27745;DHT22;61387;48.112;8.616;2023-02-24T23:06:30;3.80;99.90
27745;DHT22;61387;48.112;8.616;2023-02-24T23:08:57;3.80;99.90
27745;DHT22;61387;48.112;8.616;2023-02-24T23:11:35;2.80;99.90
27745;DHT22;61387;48.112;8.616;2023-02-24T23:14:03;3.80;99.90
27745;DHT22;61387;48.112;8.616;2023-02-24T23:16:32;3.70;99.90
27745;DHT22;61387;48.112;8.616;2023-02-24T23:18:59;3.70;99.90
27745;DHT22;61387;48.112;8.616;2023-02-24T23:21:30;3.70;99.90
27745;DHT22;61387;48.112;8.616;2023-02-24T23:26:39;3.70;99.90
27745;DHT22;61387;48.112;8.616;2023-02-24T23:29:06;3.80;99.90
27745;DHT22;61387;48.112;8.616;2023-02-24T23:33:58;3.80;99.90
27745;DHT22;61387;48.112;8.616;2023-02-24T23:36:24;3.80;99.90
27745;DHT22;61387;48.112;8.616;2023-02-24T23:46:10;3.80;99.90
27745;DHT22;61387;48.112;8.616;2023-02-24T23:48:36;3.80;99.90
27745;DHT22;61387;48.112;8.616;2023-02-24T23:51:04;3.80;99.90
